KAPF/APF METAR and TAF weather

Enter ICAO airport designator
Station Type Date Time Source
KAPF METAR 2021/03/02 02:53 UTC NOAA

KAPF 020253Z AUTO 22003KT 8SM CLR 23/21 A3008 RMK AO2 SLP184 T02280211 53013


Station Type Date Time Source
KAPF Decoded METAR 2021/03/02 02:53 UTC NOAA

NAPLES MUNICIPAL AIRPORT, FL, United States (KAPF) 26-09N 081-46W
Mar 01, 2021 - 09:53 PM EST / 2021.03.02 0253 UTC
Wind: from the SW (220 degrees) at 3 MPH (3 KT):0
Visibility: 8 mile(s):0
Sky conditions: clear
Temperature: 73.0 F (22.8 C)
Dew Point: 70.0 F (21.1 C)
Relative Humidity: 90%
Pressure (altimeter): 30.08 in. Hg (1018 hPa)
Pressure tendency: 0.04 inches (1.3 hPa) higher than three hours ago
ob: KAPF 020253Z AUTO 22003KT 8SM CLR 23/21 A3008 RMK AO2 SLP184 T02280211 53013
cycle: 3

Station Type Date Time Source
KAPF TAF 2021/03/02 03:54 UTC NOAA

TAF
AMD KAPF 020252Z 0203/0224 VRB03KT P6SM FEW020
FM020900 VRB03KT 3SM BR FEW010 SCT020
FM021400 13007KT P6SM FEW025 SCT040
FM021800 20010KT P6SM SCT030

Example: see airport list